Time;durP1;ratioP1;P1;durP2;ratioP2;P2;SDS_P1;SDS_P2;PMS_P1;PMS_P2;Temp;Humidity;BMP_temperature;BMP_pressure;BME280_temperature;BME280_humidity;BME280_pressure;Samples;Min_cycle;Max_cycle;Signal;HPM_P1;HPM_P2
2023/12/30 00:01:34;;;;;;;20.27;3.78;;;;;;;7.51;100.00;100851.34;5092355;27;20031;-60
2023/12/30 00:04:00;;;;;;;10.77;4.43;;;;;;;7.50;100.00;100855.78;5111351;28;20512;-60
2023/12/30 00:06:25;;;;;;;16.95;3.95;;;;;;;7.57;100.00;100858.13;5111848;28;20181;-60
2023/12/30 00:08:51;;;;;;;11.40;3.60;;;;;;;7.48;100.00;100862.06;5111091;28;20086;-60
2023/12/30 00:11:16;;;;;;;11.50;2.90;;;;;;;7.46;100.00;100867.44;5111760;28;20023;-60
2023/12/30 00:13:45;;;;;;;7.15;3.30;;;;;;;7.46;100.00;100867.44;5112556;27;20026;-59
2023/12/30 00:16:13;;;;;;;9.13;3.53;;;;;;;7.42;100.00;100867.69;5093450;28;20016;-59
2023/12/30 00:18:41;;;;;;;17.45;4.47;;;;;;;7.50;100.00;100871.66;5111376;28;20020;-59
2023/12/30 00:21:07;;;;;;;9.32;3.05;;;;;;;7.46;100.00;100871.88;5112816;28;20027;-59
2023/12/30 00:23:33;;;;;;;9.85;2.65;;;;;;;7.41;100.00;100877.41;5093132;28;20068;-59
2023/12/30 00:25:58;;;;;;;7.05;2.90;;;;;;;7.32;100.00;100861.97;5111507;28;20038;-59
2023/12/30 00:28:26;;;;;;;8.88;3.40;;;;;;;7.37;100.00;100878.47;5112462;27;20375;-60
2023/12/30 00:30:51;;;;;;;6.07;2.72;;;;;;;7.34;100.00;100878.63;5091057;28;20451;-60
2023/12/30 00:33:17;;;;;;;10.45;3.28;;;;;;;7.39;100.00;100883.72;5111383;28;20103;-59
2023/12/30 00:35:43;;;;;;;13.73;3.50;;;;;;;7.56;100.00;100886.38;5092977;28;20107;-59
2023/12/30 00:38:08;;;;;;;13.00;3.60;;;;;;;7.37;100.00;100888.22;5111269;28;20103;-59
2023/12/30 00:40:33;;;;;;;15.80;3.15;;;;;;;7.36;100.00;100897.94;5092358;28;20102;-60
2023/12/30 00:42:59;;;;;;;13.00;3.63;;;;;;;7.39;100.00;100902.22;5093116;28;20051;-59
2023/12/30 00:45:24;;;;;;;8.20;2.97;;;;;;;7.27;100.00;100896.59;5093583;28;20466;-59
2023/12/30 00:47:50;;;;;;;5.65;2.92;;;;;;;7.38;100.00;100901.38;5093394;28;20031;-60
2023/12/30 00:50:15;;;;;;;12.73;3.33;;;;;;;7.32;100.00;100903.44;5110713;28;20083;-60
2023/12/30 00:52:43;;;;;;;17.42;3.22;;;;;;;7.35;100.00;100911.22;5093541;27;20405;-60
2023/12/30 00:55:11;;;;;;;6.20;2.78;;;;;;;7.26;100.00;100905.47;5093736;27;20019;-60
2023/12/30 00:57:37;;;;;;;7.80;3.53;;;;;;;7.26;100.00;100902.84;5110928;27;20036;-60
2023/12/30 01:00:03;;;;;;;14.07;3.15;;;;;;;7.19;100.00;100904.03;5110543;28;20181;-59
2023/12/30 01:02:28;;;;;;;10.80;3.47;;;;;;;7.24;100.00;100912.63;5110066;28;20023;-60
2023/12/30 01:04:54;;;;;;;10.18;2.90;;;;;;;7.26;100.00;100917.81;5111921;28;20110;-60
2023/12/30 01:07:19;;;;;;;7.85;3.03;;;;;;;7.19;100.00;100913.78;5113651;27;20479;-60
2023/12/30 01:09:44;;;;;;;6.07;2.50;;;;;;;7.28;100.00;100915.97;5091686;28;20020;-59
2023/12/30 01:12:10;;;;;;;13.93;2.83;;;;;;;7.30;100.00;100921.19;5092438;28;20027;-59
2023/12/30 01:14:35;;;;;;;9.90;2.72;;;;;;;7.33;100.00;100915.75;5110624;28;20417;-60
2023/12/30 01:17:01;;;;;;;6.05;2.30;;;;;;;7.38;100.00;100911.97;5110059;28;20027;-59
2023/12/30 01:19:28;;;;;;;16.85;3.47;;;;;;;7.27;100.00;100917.75;5110551;28;20011;-59
2023/12/30 01:21:54;;;;;;;14.82;3.53;;;;;;;7.37;100.00;100925.25;5092371;28;20027;-60
2023/12/30 01:24:19;;;;;;;7.95;3.15;;;;;;;7.35;100.00;100937.69;5091956;28;20023;-59
2023/12/30 01:26:45;;;;;;;12.60;3.25;;;;;;;7.34;100.00;100928.91;5110426;28;20465;-60
2023/12/30 01:29:10;;;;;;;15.15;3.40;;;;;;;7.38;100.00;100942.81;5092134;28;20110;-60
2023/12/30 01:31:35;;;;;;;11.30;3.28;;;;;;;7.34;100.00;100942.13;5092463;28;20028;-60
2023/12/30 01:34:01;;;;;;;7.85;3.30;;;;;;;7.37;100.00;100952.56;5092421;28;20040;-59
2023/12/30 01:36:29;;;;;;;14.30;3.33;;;;;;;7.41;100.00;100967.38;5092429;28;20019;-59
2023/12/30 01:38:54;;;;;;;14.32;3.55;;;;;;;7.42;100.00;100960.28;5091934;28;20390;-60
2023/12/30 01:41:19;;;;;;;10.77;3.38;;;;;;;7.39;100.00;100958.66;5110226;28;20027;-60
2023/12/30 01:43:45;;;;;;;7.40;3.50;;;;;;;7.40;100.00;100952.41;5110277;28;20470;-60
2023/12/30 01:46:11;;;;;;;12.27;4.00;;;;;;;7.42;100.00;100962.94;5092977;28;20016;-60
2023/12/30 01:48:37;;;;;;;13.15;3.47;;;;;;;7.36;100.00;100939.41;5091646;28;20101;-59
2023/12/30 01:51:07;;;;;;;8.20;3.53;;;;;;;7.52;100.00;100950.97;5111323;28;20044;-60
2023/12/30 01:53:38;;;;;;;12.23;3.65;;;;;;;7.48;100.00;100954.69;5079684;28;20024;-60
2023/12/30 01:56:04;;;;;;;11.82;3.47;;;;;;;7.42;100.00;100957.66;5096893;28;20027;-60
2023/12/30 01:58:29;;;;;;;18.92;3.20;;;;;;;7.50;100.00;100964.28;5113947;28;20031;-60
2023/12/30 02:00:56;;;;;;;9.25;2.83;;;;;;;7.39;100.00;100963.94;5114259;28;20027;-59
2023/12/30 02:03:22;;;;;;;13.07;3.35;;;;;;;7.44;100.00;100967.22;5115272;27;20836;-60
2023/12/30 02:05:48;;;;;;;8.73;3.88;;;;;;;7.37;100.00;100965.78;5114387;28;20076;-60
2023/12/30 02:08:18;;;;;;;10.68;3.08;;;;;;;7.33;100.00;100968.66;5096721;28;20457;-59
2023/12/30 02:10:44;;;;;;;12.55;3.13;;;;;;;7.31;100.00;100973.16;5113357;27;20508;-60
2023/12/30 02:13:10;;;;;;;13.82;3.55;;;;;;;7.33;100.00;100977.47;5113917;27;20051;-59
2023/12/30 02:15:35;;;;;;;7.05;3.20;;;;;;;7.34;100.00;100978.31;5098214;28;20026;-60
2023/12/30 02:18:04;;;;;;;12.88;3.30;;;;;;;7.38;100.00;100978.09;5113389;28;20102;-60
2023/12/30 02:20:30;;;;;;;8.88;3.28;;;;;;;7.38;100.00;100978.09;5095489;28;20032;-60
2023/12/30 02:22:55;;;;;;;16.33;3.55;;;;;;;7.38;100.00;100975.47;5113574;28;20113;-59
2023/12/30 02:25:21;;;;;;;5.88;2.72;;;;;;;7.44;100.00;100984.88;5096490;28;20885;-60
2023/12/30 02:27:46;;;;;;;14.93;3.65;;;;;;;7.43;100.00;100985.81;5113329;28;20023;-60
2023/12/30 02:30:12;;;;;;;11.05;4.82;;;;;;;7.56;100.00;100992.25;5095333;28;20058;-60
2023/12/30 02:32:41;;;;;;;12.57;3.88;;;;;;;7.25;100.00;100982.25;5114133;28;20076;-60
2023/12/30 02:35:07;;;;;;;10.25;3.58;;;;;;;7.18;100.00;100999.34;5096357;27;20042;-60
2023/12/30 02:37:32;;;;;;;8.13;3.58;;;;;;;7.17;100.00;101006.41;5111073;28;20028;-60
2023/12/30 02:39:58;;;;;;;16.45;3.38;;;;;;;7.19;100.00;100990.47;5115350;27;20035;-60
2023/12/30 02:42:23;;;;;;;13.38;3.38;;;;;;;7.18;100.00;100996.72;5113465;28;20433;-60
2023/12/30 02:44:49;;;;;;;13.85;3.58;;;;;;;7.15;100.00;101008.28;5096458;28;20019;-60
2023/12/30 02:47:15;;;;;;;10.15;3.30;;;;;;;7.14;100.00;101003.91;5094991;28;20398;-60
2023/12/30 02:49:44;;;;;;;11.30;3.15;;;;;;;7.13;100.00;101010.13;5094829;28;20036;-59
2023/12/30 02:52:10;;;;;;;10.30;3.10;;;;;;;7.12;100.00;101007.53;5096822;28;20033;-59
2023/12/30 02:54:36;;;;;;;8.35;3.28;;;;;;;7.16;100.00;101010.00;5098498;27;20493;-59
2023/12/30 02:57:05;;;;;;;18.35;4.70;;;;;;;7.10;100.00;101018.22;5094362;28;20456;-60
2023/12/30 02:59:31;;;;;;;15.05;3.03;;;;;;;7.06;100.00;101006.06;5095184;28;20020;-60
2023/12/30 03:01:56;;;;;;;14.30;3.40;;;;;;;7.09;100.00;101011.22;5111959;28;20031;-60
2023/12/30 03:04:22;;;;;;;12.02;3.63;;;;;;;7.03;100.00;101007.06;5113525;28;20126;-60
2023/12/30 03:06:48;;;;;;;12.50;4.30;;;;;;;7.08;100.00;101019.19;5112888;27;20020;-60
2023/12/30 03:09:14;;;;;;;10.10;3.75;;;;;;;6.96;100.00;101020.63;5094236;28;20031;-59
2023/12/30 03:11:40;;;;;;;19.05;3.45;;;;;;;7.14;100.00;101016.28;5112336;28;20023;-60
2023/12/30 03:14:05;;;;;;;10.90;3.22;;;;;;;7.03;100.00;101019.44;5116455;27;20027;-60
2023/12/30 03:16:32;;;;;;;13.77;3.42;;;;;;;7.01;100.00;101016.00;5094304;28;20032;-60
2023/12/30 03:18:57;;;;;;;9.82;2.88;;;;;;;6.93;100.00;101026.03;5092441;28;20031;-59
2023/12/30 03:21:23;;;;;;;12.43;4.03;;;;;;;6.92;100.00;101022.56;5112768;27;20035;-60
2023/12/30 03:23:50;;;;;;;10.38;2.75;;;;;;;6.87;100.00;101019.25;5095878;27;20859;-59
2023/12/30 03:26:16;;;;;;;11.23;3.17;;;;;;;6.87;100.00;101019.25;5112300;28;20401;-60
2023/12/30 03:28:43;;;;;;;11.25;3.65;;;;;;;6.85;100.00;101002.59;5112208;28;20024;-60
2023/12/30 03:31:26;;;;;;;16.88;3.45;;;;;;;6.88;100.00;101014.81;5112831;27;20431;-60
2023/12/30 03:33:51;;;;;;;12.13;3.85;;;;;;;6.90;100.00;101013.81;5121189;27;20031;-60
2023/12/30 03:36:17;;;;;;;19.35;3.65;;;;;;;6.82;100.00;101000.06;5112462;28;20061;-59
2023/12/30 03:38:42;;;;;;;16.77;3.53;;;;;;;6.92;100.00;101019.91;5093344;27;20035;-60
2023/12/30 03:41:08;;;;;;;13.45;3.35;;;;;;;6.89;100.00;101008.63;5094076;28;20037;-59
2023/12/30 03:43:33;;;;;;;13.63;3.55;;;;;;;6.87;100.00;101013.97;5077190;28;20015;-59
2023/12/30 03:45:59;;;;;;;12.80;3.47;;;;;;;6.82;100.00;101015.94;5115259;27;20539;-59
2023/12/30 03:48:24;;;;;;;12.75;4.00;;;;;;;6.72;100.00;101009.38;5094173;28;20034;-60
2023/12/30 03:50:49;;;;;;;9.38;3.35;;;;;;;6.78;100.00;101025.81;5111865;27;20126;-59
2023/12/30 03:53:15;;;;;;;11.65;3.10;;;;;;;6.74;100.00;101028.66;5112390;28;20031;-59
2023/12/30 03:55:40;;;;;;;11.27;3.95;;;;;;;6.75;100.00;101036.50;5112343;27;20541;-60
2023/12/30 03:58:08;;;;;;;13.88;3.38;;;;;;;6.74;100.00;101031.31;5094916;28;20063;-60
2023/12/30 04:00:33;;;;;;;12.90;4.18;;;;;;;6.70;100.00;101021.78;5093480;28;20478;-60
2023/12/30 04:02:59;;;;;;;12.40;3.03;;;;;;;6.71;100.00;101021.72;5111799;28;20043;-60
2023/12/30 04:05:24;;;;;;;8.90;3.00;;;;;;;6.68;100.00;101023.66;5093738;28;20027;-60
2023/12/30 04:07:54;;;;;;;15.23;3.45;;;;;;;6.69;100.00;101009.50;5090092;28;20076;-60
2023/12/30 04:10:20;;;;;;;8.75;3.10;;;;;;;6.67;100.00;101022.78;5111261;27;20034;-60
2023/12/30 04:12:45;;;;;;;10.23;3.10;;;;;;;6.68;100.00;101023.66;5094567;27;20035;-60
2023/12/30 04:15:10;;;;;;;14.23;5.40;;;;;;;6.60;100.00;101008.13;5112258;28;20023;-61
2023/12/30 04:17:37;;;;;;;6.68;3.05;;;;;;;6.59;100.00;101020.47;5111702;28;20028;-59
2023/12/30 04:20:05;;;;;;;14.90;3.50;;;;;;;6.53;100.00;101017.22;5093429;28;20030;-59
2023/12/30 04:22:30;;;;;;;7.90;3.08;;;;;;;6.58;100.00;101017.88;5111632;27;20023;-60
2023/12/30 04:24:56;;;;;;;10.70;3.10;;;;;;;6.58;100.00;101024.03;5093755;28;20046;-59
2023/12/30 04:27:22;;;;;;;9.23;3.40;;;;;;;6.55;100.00;101028.59;5111576;28;20039;-60
2023/12/30 04:29:49;;;;;;;10.93;4.07;;;;;;;6.58;100.00;101024.03;5112212;27;20567;-60
2023/12/30 04:32:15;;;;;;;12.77;3.60;;;;;;;6.57;100.00;101026.75;5109427;28;20031;-59
2023/12/30 04:34:40;;;;;;;12.02;3.53;;;;;;;6.42;100.00;101015.06;5111165;27;20069;-59
2023/12/30 04:37:05;;;;;;;11.60;3.63;;;;;;;6.40;100.00;101021.34;5111615;27;20096;-59
2023/12/30 04:39:31;;;;;;;12.35;3.78;;;;;;;6.48;100.00;101032.44;5110317;28;20467;-60
2023/12/30 04:41:56;;;;;;;12.18;3.00;;;;;;;6.54;100.00;101035.66;5111063;28;20054;-60
2023/12/30 04:44:22;;;;;;;14.30;3.45;;;;;;;6.49;100.00;101028.88;5093898;27;20613;-60
2023/12/30 04:46:47;;;;;;;18.98;3.30;;;;;;;6.50;100.00;101030.56;5095373;27;20075;-61
2023/12/30 04:49:13;;;;;;;12.07;3.13;;;;;;;6.42;100.00;101028.28;5092692;28;20643;-59
2023/12/30 04:51:39;;;;;;;7.63;3.42;;;;;;;6.51;100.00;101030.53;5094624;27;20482;-60
2023/12/30 04:54:04;;;;;;;5.55;2.85;;;;;;;6.47;100.00;101026.31;5111415;27;20486;-59
2023/12/30 04:56:32;;;;;;;11.50;3.63;;;;;;;6.45;100.00;101037.84;5112450;27;20046;-60
2023/12/30 04:58:58;;;;;;;14.90;3.67;;;;;;;6.46;100.00;101037.78;5093080;28;20394;-60
2023/12/30 05:01:23;;;;;;;12.95;3.53;;;;;;;6.40;100.00;101051.25;5077146;28;20042;-59
2023/12/30 05:03:50;;;;;;;7.97;3.08;;;;;;;6.49;100.00;101044.72;5092313;28;20374;-59
2023/12/30 05:06:23;;;;;;;12.77;3.53;;;;;;;6.48;100.00;101054.44;5093537;28;20024;-59
2023/12/30 05:08:49;;;;;;;7.97;3.33;;;;;;;6.42;100.00;101059.97;5109965;28;20500;-59
2023/12/30 05:11:15;;;;;;;4.93;2.90;;;;;;;6.39;100.00;101060.13;5111688;27;20031;-60
2023/12/30 05:13:42;;;;;;;19.27;3.97;;;;;;;6.37;100.00;101064.59;5095040;28;20024;-60
2023/12/30 05:16:07;;;;;;;14.93;3.72;;;;;;;6.36;100.00;101057.59;5111132;28;20032;-59
2023/12/30 05:18:33;;;;;;;17.95;3.85;;;;;;;6.30;100.00;101048.16;5113016;27;20031;-60
2023/12/30 05:20:58;;;;;;;14.25;3.78;;;;;;;6.33;100.00;101049.81;5110866;28;20032;-59
2023/12/30 05:23:23;;;;;;;16.02;3.50;;;;;;;6.35;100.00;101059.38;5092317;28;20103;-60
2023/12/30 05:25:49;;;;;;;14.05;3.65;;;;;;;6.36;100.00;101066.38;5109656;28;20467;-59
2023/12/30 05:28:15;;;;;;;21.05;3.92;;;;;;;6.37;100.00;101073.38;5109742;28;20023;-60
2023/12/30 05:30:40;;;;;;;19.63;4.82;;;;;;;6.39;100.00;101069.81;5092076;28;20020;-59
2023/12/30 05:33:06;;;;;;;6.53;2.75;;;;;;;6.26;100.00;101065.03;5094081;28;20069;-60
2023/12/30 05:35:32;;;;;;;9.73;3.17;;;;;;;6.30;100.00;101061.34;5113066;28;20051;-59
2023/12/30 05:37:58;;;;;;;12.50;3.60;;;;;;;6.30;100.00;101071.91;5112287;28;20063;-59
2023/12/30 05:40:23;;;;;;;12.38;3.42;;;;;;;6.32;100.00;101080.66;5091503;28;20027;-59
2023/12/30 05:42:49;;;;;;;15.82;3.90;;;;;;;6.32;100.00;101070.09;5092085;28;20119;-60
2023/12/30 05:45:14;;;;;;;19.08;3.88;;;;;;;6.35;100.00;101079.63;5109865;28;20098;-60
2023/12/30 05:47:39;;;;;;;16.33;3.70;;;;;;;6.23;100.00;101075.72;5111714;28;20024;-60
2023/12/30 05:50:05;;;;;;;18.27;3.42;;;;;;;6.30;100.00;101086.91;5112258;28;20050;-60
2023/12/30 05:52:31;;;;;;;13.43;3.50;;;;;;;6.31;100.00;101076.28;5092101;28;20028;-60
2023/12/30 05:54:56;;;;;;;13.07;4.75;;;;;;;6.37;100.00;101083.94;5111876;28;20077;-59
2023/12/30 05:57:22;;;;;;;20.70;3.63;;;;;;;6.29;100.00;101085.19;5110223;28;20398;-59
2023/12/30 05:59:47;;;;;;;15.23;4.18;;;;;;;6.24;100.00;101088.03;5109819;28;20456;-59
2023/12/30 06:02:12;;;;;;;23.05;4.43;;;;;;;6.24;100.00;101092.44;5091656;28;20444;-60
2023/12/30 06:04:41;;;;;;;14.50;3.35;;;;;;;6.26;100.00;101090.59;5092724;28;20023;-60
2023/12/30 06:07:07;;;;;;;9.27;4.07;;;;;;;6.19;100.00;101092.63;5092258;28;20122;-59
2023/12/30 06:09:35;;;;;;;17.65;4.53;;;;;;;6.17;100.00;101088.31;5091660;28;20027;-60
2023/12/30 06:12:01;;;;;;;17.25;3.88;;;;;;;6.14;100.00;101089.31;5092833;28;20448;-59
2023/12/30 06:14:26;;;;;;;18.15;4.22;;;;;;;6.16;100.00;101095.41;5110583;28;20162;-59
2023/12/30 06:16:51;;;;;;;11.10;4.13;;;;;;;6.12;100.00;101099.09;5111271;28;20043;-60
2023/12/30 06:19:19;;;;;;;19.67;3.88;;;;;;;6.14;100.00;101108.66;5092876;28;20466;-60
2023/12/30 06:21:45;;;;;;;9.07;3.13;;;;;;;6.11;100.00;101094.72;5089361;28;20489;-60
2023/12/30 06:24:10;;;;;;;14.07;3.40;;;;;;;6.11;100.00;101097.34;5112968;28;20043;-60
2023/12/30 06:26:38;;;;;;;15.40;4.45;;;;;;;6.14;100.00;101108.66;5109824;28;20032;-60
2023/12/30 06:29:03;;;;;;;19.08;3.47;;;;;;;6.03;100.00;101102.97;5091592;28;20409;-59
2023/12/30 06:31:29;;;;;;;5.78;3.17;;;;;;;6.08;100.00;101110.69;5091667;28;20019;-60
2023/12/30 06:33:54;;;;;;;13.55;3.30;;;;;;;6.11;100.00;101127.25;5091692;28;20019;-60
2023/12/30 06:36:21;;;;;;;9.02;3.83;;;;;;;6.09;100.00;101117.69;5109714;28;20043;-59
2023/12/30 06:38:49;;;;;;;5.43;2.75;;;;;;;6.24;100.00;101116.22;5117104;27;20371;-60
2023/12/30 06:41:18;;;;;;;12.45;3.58;;;;;;;6.16;100.00;101116.53;5114713;27;20436;-60
2023/12/30 06:43:46;;;;;;;13.13;3.47;;;;;;;6.10;100.00;101114.13;5115112;27;20428;-60
2023/12/30 06:46:11;;;;;;;15.88;4.18;;;;;;;6.25;100.00;101120.56;5114076;27;20477;-60
2023/12/30 06:48:37;;;;;;;12.88;3.33;;;;;;;6.12;100.00;101115.78;5114340;27;20027;-60
2023/12/30 06:51:02;;;;;;;21.08;4.05;;;;;;;6.14;100.00;101121.84;5094759;28;20127;-59
2023/12/30 06:53:31;;;;;;;17.13;3.97;;;;;;;6.13;100.00;101116.66;5113153;28;20098;-60
2023/12/30 06:56:01;;;;;;;10.37;2.90;;;;;;;6.10;100.00;101104.41;5113315;27;20027;-59
2023/12/30 06:58:29;;;;;;;16.23;3.70;;;;;;;6.12;100.00;101115.78;5112857;27;20277;-60
2023/12/30 07:00:55;;;;;;;10.63;3.17;;;;;;;6.15;100.00;101109.53;5117227;27;20032;-60
2023/12/30 07:03:21;;;;;;;14.20;3.03;;;;;;;6.21;100.00;101111.91;5095738;28;20433;-59
2023/12/30 07:05:46;;;;;;;11.70;3.38;;;;;;;6.16;100.00;101116.53;5114312;27;20027;-60
2023/12/30 07:08:12;;;;;;;17.83;3.38;;;;;;;6.20;100.00;101112.81;5113158;28;20474;-60
2023/12/30 07:10:38;;;;;;;15.70;4.88;;;;;;;6.13;100.00;101114.84;5094468;28;20027;-59
2023/12/30 07:13:04;;;;;;;11.10;3.90;;;;;;;6.19;100.00;101118.19;5094685;28;20102;-59
2023/12/30 07:15:29;;;;;;;17.27;4.72;;;;;;;6.24;100.00;101126.78;5114567;27;20078;-60
2023/12/30 07:17:54;;;;;;;17.33;3.15;;;;;;;6.29;100.00;101123.00;5093826;28;20428;-60
2023/12/30 07:20:21;;;;;;;10.35;3.42;;;;;;;6.21;100.00;101127.75;5112976;27;20027;-60
2023/12/30 07:22:46;;;;;;;10.90;3.60;;;;;;;6.16;100.00;101123.59;5094758;28;20375;-60
2023/12/30 07:25:12;;;;;;;16.98;4.38;;;;;;;6.14;100.00;101132.41;5111860;28;20126;-59
2023/12/30 07:27:38;;;;;;;16.55;3.72;;;;;;;6.13;100.00;101122.78;5095175;28;20020;-60
2023/12/30 07:30:04;;;;;;;15.23;3.45;;;;;;;6.09;100.00;101121.19;5113725;27;20463;-59
2023/12/30 07:32:30;;;;;;;19.60;3.95;;;;;;;6.11;100.00;101121.97;5113549;27;20410;-60
2023/12/30 07:34:56;;;;;;;8.40;3.38;;;;;;;6.18;100.00;101130.53;5115562;27;20027;-60
2023/12/30 07:37:21;;;;;;;13.57;3.25;;;;;;;6.19;100.00;101134.88;5115903;27;20024;-60
2023/12/30 07:39:47;;;;;;;6.93;3.58;;;;;;;6.31;100.00;101129.09;5111649;28;20379;-60
2023/12/30 07:42:12;;;;;;;10.10;3.55;;;;;;;6.16;100.00;101126.22;5095081;28;20030;-60
2023/12/30 07:44:38;;;;;;;17.50;3.40;;;;;;;6.14;100.00;101132.41;5112565;28;20047;-60
2023/12/30 07:47:05;;;;;;;15.93;2.92;;;;;;;6.13;100.00;101133.34;5111768;28;20418;-60
2023/12/30 07:49:31;;;;;;;20.85;5.28;;;;;;;6.12;100.00;101134.28;5094023;28;20462;-60
2023/12/30 07:51:56;;;;;;;12.90;4.10;;;;;;;6.09;100.00;101123.84;5112177;28;20023;-60
2023/12/30 07:54:21;;;;;;;14.45;3.15;;;;;;;6.12;100.00;101129.00;5111528;28;20531;-60
2023/12/30 07:56:47;;;;;;;10.68;2.90;;;;;;;6.10;100.00;101136.09;5093843;28;20466;-60
2023/12/30 07:59:13;;;;;;;14.60;3.83;;;;;;;6.00;100.00;101133.88;5111460;28;20020;-60
2023/12/30 08:01:45;;;;;;;13.05;3.53;;;;;;;6.07;100.00;101152.06;5092899;28;20023;-60
2023/12/30 08:04:11;;;;;;;13.27;3.65;;;;;;;6.05;100.00;101164.47;5112362;27;20501;-60
2023/12/30 08:06:39;;;;;;;20.48;3.22;;;;;;;6.07;100.00;101161.78;5091997;28;20031;-60
2023/12/30 08:09:04;;;;;;;16.27;3.78;;;;;;;6.06;100.00;101167.97;5110237;28;20102;-60
2023/12/30 08:11:30;;;;;;;14.82;2.85;;;;;;;6.09;100.00;101163.44;5110753;27;20592;-60
2023/12/30 08:13:55;;;;;;;13.13;3.65;;;;;;;6.11;100.00;101169.50;5111785;27;20110;-60
2023/12/30 08:16:20;;;;;;;13.02;3.60;;;;;;;6.16;100.00;101168.47;5093554;28;20022;-60
2023/12/30 08:18:46;;;;;;;13.52;3.45;;;;;;;6.23;100.00;101167.31;5092126;27;20173;-60
2023/12/30 08:21:11;;;;;;;13.88;3.85;;;;;;;6.18;100.00;101159.59;5091923;28;20106;-60
2023/12/30 08:23:37;;;;;;;14.35;3.63;;;;;;;6.23;100.00;101165.50;5091570;28;20016;-60
2023/12/30 08:26:02;;;;;;;7.10;3.20;;;;;;;6.22;100.00;101160.31;5111187;28;20659;-60
2023/12/30 08:28:28;;;;;;;15.25;3.97;;;;;;;6.26;100.00;101175.09;5110889;27;20423;-60
2023/12/30 08:30:57;;;;;;;18.33;4.00;;;;;;;6.40;100.00;101177.19;5092462;28;20070;-60
2023/12/30 08:33:24;;;;;;;14.73;3.70;;;;;;;6.34;100.00;101167.75;5111720;27;20497;-60
2023/12/30 08:35:50;;;;;;;19.92;4.28;;;;;;;6.40;100.00;101166.63;5110691;28;20015;-60
2023/12/30 08:38:16;;;;;;;14.88;4.47;;;;;;;6.44;100.00;101168.22;5092082;28;20050;-60
2023/12/30 08:40:42;;;;;;;11.75;3.85;;;;;;;6.56;100.00;101171.25;5110233;28;20081;-60
2023/12/30 08:43:07;;;;;;;17.15;3.60;;;;;;;6.49;100.00;101164.47;5092803;28;20556;-60
2023/12/30 08:45:33;;;;;;;17.17;3.70;;;;;;;6.49;100.00;101160.97;5112263;27;20043;-60
2023/12/30 08:47:58;;;;;;;18.08;4.72;;;;;;;6.55;100.00;101169.50;5110417;28;20106;-60
2023/12/30 08:50:26;;;;;;;14.38;3.88;;;;;;;6.64;100.00;101173.53;5110251;27;20051;-60
2023/12/30 08:52:54;;;;;;;11.65;3.75;;;;;;;6.58;100.00;101173.81;5110598;28;20500;-60
2023/12/30 08:55:19;;;;;;;16.92;3.60;;;;;;;6.56;100.00;101163.31;5109678;28;20038;-60
2023/12/30 08:57:45;;;;;;;8.82;3.88;;;;;;;6.58;100.00;101179.94;5110601;28;20024;-60
2023/12/30 09:00:11;;;;;;;16.77;4.00;;;;;;;6.58;100.00;101165.88;5091904;28;20583;-59
2023/12/30 09:02:36;;;;;;;17.05;4.38;;;;;;;6.74;100.00;101176.69;5092684;28;20047;-60
2023/12/30 09:05:02;;;;;;;19.00;5.40;;;;;;;6.80;100.00;101179.06;5110943;28;20040;-60
2023/12/30 09:07:29;;;;;;;23.27;3.88;;;;;;;6.74;100.00;101172.25;5110692;28;20062;-59
2023/12/30 09:09:55;;;;;;;17.38;4.68;;;;;;;6.77;100.00;101180.06;5110326;28;20119;-60
2023/12/30 09:12:20;;;;;;;11.82;3.88;;;;;;;6.90;100.00;101179.53;5110748;28;20023;-60
2023/12/30 09:14:46;;;;;;;22.65;4.53;;;;;;;6.85;100.00;101182.34;5109100;28;20041;-60
2023/12/30 09:17:11;;;;;;;17.92;4.82;;;;;;;6.86;100.00;101186.75;5110388;28;20030;-60
2023/12/30 09:19:36;;;;;;;9.88;4.20;;;;;;;6.83;100.00;101200.09;5092303;28;20015;-60
2023/12/30 09:22:02;;;;;;;17.17;4.22;;;;;;;6.85;100.00;101194.72;5091585;28;20405;-60
2023/12/30 09:24:28;;;;;;;14.68;3.95;;;;;;;6.89;100.00;101194.53;5110396;28;20031;-60
2023/12/30 09:26:53;;;;;;;15.90;4.03;;;;;;;6.95;100.00;101196.91;5110474;28;20100;-60
2023/12/30 09:29:19;;;;;;;14.88;4.47;;;;;;;6.88;100.00;101197.22;5094056;28;20034;-60
2023/12/30 09:31:44;;;;;;;18.63;4.90;;;;;;;6.97;100.00;101216.25;5093302;28;20111;-60
2023/12/30 09:34:10;;;;;;;21.50;4.75;;;;;;;6.96;100.00;101216.28;5110532;28;20031;-60
2023/12/30 09:36:37;;;;;;;20.63;4.22;;;;;;;7.02;100.00;101208.09;5110841;28;20050;-60
2023/12/30 09:39:07;;;;;;;18.88;4.18;;;;;;;7.05;100.00;101215.91;5109732;28;20032;-60
2023/12/30 09:41:33;;;;;;;16.85;4.95;;;;;;;7.08;100.00;101212.25;5115065;28;20022;-60
2023/12/30 09:43:59;;;;;;;21.42;5.45;;;;;;;7.18;100.00;101211.81;5091954;28;20023;-60
2023/12/30 09:46:27;;;;;;;12.45;4.50;;;;;;;7.14;100.00;101212.84;5091611;28;20023;-60
2023/12/30 09:48:55;;;;;;;14.75;4.25;;;;;;;7.18;100.00;101221.53;5090225;28;20032;-60
2023/12/30 09:51:21;;;;;;;15.85;4.50;;;;;;;7.25;100.00;101217.69;5109760;28;20127;-60
2023/12/30 09:53:46;;;;;;;16.45;4.80;;;;;;;7.30;100.00;101220.16;5091825;28;20111;-60
2023/12/30 09:56:12;;;;;;;22.35;5.57;;;;;;;7.35;100.00;101223.44;5109707;28;20094;-60
2023/12/30 09:58:40;;;;;;;14.80;4.90;;;;;;;7.26;100.00;101208.81;5091768;28;20045;-60
2023/12/30 10:01:05;;;;;;;12.75;5.20;;;;;;;7.28;100.00;101215.75;5093090;28;20031;-60
2023/12/30 10:03:31;;;;;;;24.65;5.00;;;;;;;7.35;100.00;101220.78;5091756;28;20397;-60
2023/12/30 10:06:01;;;;;;;25.88;5.78;;;;;;;7.27;100.00;101202.63;5109426;28;20073;-60
2023/12/30 10:08:30;;;;;;;16.27;5.28;;;;;;;7.33;100.00;101218.22;5092024;28;20378;-60
2023/12/30 10:10:59;;;;;;;14.07;5.73;;;;;;;7.37;100.00;101214.50;5092657;28;20522;-60
2023/12/30 10:13:27;;;;;;;16.98;5.72;;;;;;;7.44;100.00;101210.69;5096068;28;20044;-60
2023/12/30 10:15:55;;;;;;;22.33;5.82;;;;;;;7.40;100.00;101218.81;5116354;27;20027;-60
2023/12/30 10:18:20;;;;;;;23.77;5.57;;;;;;;7.42;100.00;101219.59;5126741;27;20363;-60
2023/12/30 10:20:47;;;;;;;20.83;5.93;;;;;;;7.45;100.00;101225.63;5123290;27;20018;-60
2023/12/30 10:23:13;;;;;;;20.27;4.88;;;;;;;7.43;100.00;101223.97;5096995;28;20023;-60
2023/12/30 10:25:39;;;;;;;15.13;5.13;;;;;;;7.53;100.00;101229.69;5096537;28;20031;-60
2023/12/30 10:28:05;;;;;;;16.48;4.93;;;;;;;7.49;100.00;101221.03;5099651;28;20019;-60
2023/12/30 10:30:31;;;;;;;19.52;5.65;;;;;;;7.54;100.00;101229.66;5114584;28;20016;-60
2023/12/30 10:33:07;;;;;;;17.13;5.25;;;;;;;7.55;100.00;101225.22;5095258;28;20036;-60
2023/12/30 10:35:32;;;;;;;19.08;6.00;;;;;;;7.58;100.00;101225.06;5096121;27;20390;-60
2023/12/30 10:37:59;;;;;;;14.40;5.00;;;;;;;7.64;100.00;101232.75;5095006;28;20064;-60
2023/12/30 10:40:26;;;;;;;14.82;4.97;;;;;;;7.64;100.00;101240.69;5112975;28;20024;-61
2023/12/30 10:42:53;;;;;;;18.55;5.30;;;;;;;7.66;100.00;101234.41;5124125;27;20027;-60
2023/12/30 10:45:19;;;;;;;25.65;6.10;;;;;;;7.67;100.00;101230.81;5114180;27;20405;-60
2023/12/30 10:47:45;;;;;;;13.35;4.63;;;;;;;7.74;100.00;101226.97;5095274;28;20024;-60
2023/12/30 10:50:13;;;;;;;15.13;4.80;;;;;;;7.82;100.00;101223.97;5094950;28;20059;-60
2023/12/30 10:52:49;;;;;;;32.10;5.88;;;;;;;7.80;100.00;101233.78;5095353;28;20043;-60
2023/12/30 10:55:17;;;;;;;12.15;4.43;;;;;;;7.76;100.00;101212.78;5094410;27;20519;-62
2023/12/30 10:57:50;;;;;;;18.13;5.55;;;;;;;7.77;100.00;101207.44;5109054;27;20031;-61
2023/12/30 11:00:20;;;;;;;16.00;5.57;;;;;;;7.90;100.00;101220.97;5112458;28;20409;-60
2023/12/30 11:02:47;;;;;;;17.48;5.00;;;;;;;7.86;100.00;101201.72;5093075;28;20444;-60
2023/12/30 11:05:36;;;;;;;21.45;6.40;;;;;;;7.89;100.00;101208.66;5094254;28;20089;-60
2023/12/30 11:08:03;;;;;;;14.93;4.63;;;;;;;7.91;100.00;101204.13;5093615;28;20056;-60
2023/12/30 11:10:29;;;;;;;16.52;4.88;;;;;;;7.93;100.00;101203.16;5111597;28;20608;-60
2023/12/30 11:12:54;;;;;;;16.98;5.30;;;;;;;7.95;100.00;101193.34;5094252;28;20032;-60
2023/12/30 11:15:23;;;;;;;12.45;4.65;;;;;;;8.10;100.00;101190.91;5113877;27;20023;-60